sensor_id;sensor_type;location;lat;lon;timestamp;pressure;altitude;pressure_sealevel;temperature;humidity
19748;BME280;10032;51.386;12.516;2023-05-25T00:00:27;100968.97;;;9.05;100.00
19748;BME280;10032;51.386;12.516;2023-05-25T00:02:53;100965.63;;;9.03;100.00
19748;BME280;10032;51.386;12.516;2023-05-25T00:05:19;100965.03;;;9.01;100.00
19748;BME280;10032;51.386;12.516;2023-05-25T00:07:45;100971.91;;;8.97;100.00
19748;BME280;10032;51.386;12.516;2023-05-25T00:10:11;100973.16;;;8.95;100.00
19748;BME280;10032;51.386;12.516;2023-05-25T00:12:36;100975.88;;;8.95;100.00
19748;BME280;10032;51.386;12.516;2023-05-25T00:15:06;100971.94;;;8.91;100.00
19748;BME280;10032;51.386;12.516;2023-05-25T00:17:32;100974.91;;;8.89;100.00
19748;BME280;10032;51.386;12.516;2023-05-25T00:19:58;100976.97;;;8.87;100.00
19748;BME280;10032;51.386;12.516;2023-05-25T00:22:37;100974.47;;;8.86;100.00
19748;BME280;10032;51.386;12.516;2023-05-25T00:25:04;100975.53;;;8.85;100.00
19748;BME280;10032;51.386;12.516;2023-05-25T00:27:30;100972.44;;;8.81;100.00
19748;BME280;10032;51.386;12.516;2023-05-25T00:29:58;100981.81;;;8.79;100.00
19748;BME280;10032;51.386;12.516;2023-05-25T00:32:24;100984.13;;;8.75;100.00
19748;BME280;10032;51.386;12.516;2023-05-25T00:34:50;100976.22;;;8.74;100.00
19748;BME280;10032;51.386;12.516;2023-05-25T00:37:15;100980.78;;;8.73;100.00
19748;BME280;10032;51.386;12.516;2023-05-25T00:39:41;100985.00;;;8.69;100.00
19748;BME280;10032;51.386;12.516;2023-05-25T00:42:06;100986.84;;;8.69;100.00
19748;BME280;10032;51.386;12.516;2023-05-25T00:44:33;100987.06;;;8.67;100.00
19748;BME280;10032;51.386;12.516;2023-05-25T00:46:59;100981.66;;;8.67;100.00
19748;BME280;10032;51.386;12.516;2023-05-25T00:49:27;100986.03;;;8.68;100.00
19748;BME280;10032;51.386;12.516;2023-05-25T00:51:56;100983.09;;;8.70;100.00
19748;BME280;10032;51.386;12.516;2023-05-25T00:54:21;100981.44;;;8.69;100.00
19748;BME280;10032;51.386;12.516;2023-05-25T00:56:55;100988.13;;;8.66;100.00
19748;BME280;10032;51.386;12.516;2023-05-25T00:59:43;100984.41;;;8.61;100.00
19748;BME280;10032;51.386;12.516;2023-05-25T01:02:11;100992.94;;;8.58;100.00
19748;BME280;10032;51.386;12.516;2023-05-25T01:04:42;100988.78;;;8.55;100.00
19748;BME280;10032;51.386;12.516;2023-05-25T01:07:10;100986.31;;;8.54;100.00
19748;BME280;10032;51.386;12.516;2023-05-25T01:09:40;100990.06;;;8.53;100.00
19748;BME280;10032;51.386;12.516;2023-05-25T01:12:09;100990.91;;;8.53;100.00
19748;BME280;10032;51.386;12.516;2023-05-25T01:14:37;100984.66;;;8.53;100.00
19748;BME280;10032;51.386;12.516;2023-05-25T01:17:04;100984.66;;;8.53;100.00
19748;BME280;10032;51.386;12.516;2023-05-25T01:19:30;100980.97;;;8.47;100.00
19748;BME280;10032;51.386;12.516;2023-05-25T01:22:07;100990.09;;;8.46;100.00
19748;BME280;10032;51.386;12.516;2023-05-25T01:24:38;100989.69;;;8.43;100.00
19748;BME280;10032;51.386;12.516;2023-05-25T01:27:16;100981.78;;;8.41;100.00
19748;BME280;10032;51.386;12.516;2023-05-25T01:29:47;100978.69;;;8.38;100.00
19748;BME280;10032;51.386;12.516;2023-05-25T01:32:14;100987.47;;;8.33;100.00
19748;BME280;10032;51.386;12.516;2023-05-25T01:34:42;100985.19;;;8.30;100.00
19748;BME280;10032;51.386;12.516;2023-05-25T01:37:08;100982.72;;;8.22;100.00
19748;BME280;10032;51.386;12.516;2023-05-25T01:39:34;100984.38;;;8.17;100.00
19748;BME280;10032;51.386;12.516;2023-05-25T01:41:59;100991.03;;;8.14;100.00
19748;BME280;10032;51.386;12.516;2023-05-25T01:44:26;100991.47;;;8.11;100.00
19748;BME280;10032;51.386;12.516;2023-05-25T01:47:01;100987.13;;;8.10;100.00
19748;BME280;10032;51.386;12.516;2023-05-25T01:49:36;100989.63;;;8.05;100.00
19748;BME280;10032;51.386;12.516;2023-05-25T01:52:22;100989.44;;;8.00;100.00
19748;BME280;10032;51.386;12.516;2023-05-25T01:54:54;100986.53;;;7.95;100.00
19748;BME280;10032;51.386;12.516;2023-05-25T01:57:23;100980.75;;;7.92;100.00
19748;BME280;10032;51.386;12.516;2023-05-25T01:59:51;100992.78;;;7.89;100.00
19748;BME280;10032;51.386;12.516;2023-05-25T02:02:20;100996.50;;;7.88;100.00
19748;BME280;10032;51.386;12.516;2023-05-25T02:04:46;100987.78;;;7.86;100.00
19748;BME280;10032;51.386;12.516;2023-05-25T02:07:12;100987.19;;;7.84;100.00
19748;BME280;10032;51.386;12.516;2023-05-25T02:09:38;100989.25;;;7.82;100.00
19748;BME280;10032;51.386;12.516;2023-05-25T02:12:04;100988.66;;;7.80;100.00
19748;BME280;10032;51.386;12.516;2023-05-25T02:14:30;100987.41;;;7.76;100.00
19748;BME280;10032;51.386;12.516;2023-05-25T02:16:55;100987.19;;;7.71;100.00
19748;BME280;10032;51.386;12.516;2023-05-25T02:19:22;100997.38;;;7.69;100.00
19748;BME280;10032;51.386;12.516;2023-05-25T02:21:47;100985.75;;;7.69;100.00
19748;BME280;10032;51.386;12.516;2023-05-25T02:24:13;100985.34;;;7.65;100.00
19748;BME280;10032;51.386;12.516;2023-05-25T02:26:38;100983.69;;;7.64;100.00
19748;BME280;10032;51.386;12.516;2023-05-25T02:29:04;100989.69;;;7.60;100.00
19748;BME280;10032;51.386;12.516;2023-05-25T02:31:30;100983.50;;;7.59;100.00
19748;BME280;10032;51.386;12.516;2023-05-25T02:33:56;100982.25;;;7.55;100.00
19748;BME280;10032;51.386;12.516;2023-05-25T02:36:21;100977.28;;;7.52;100.00
19748;BME280;10032;51.386;12.516;2023-05-25T02:38:47;100976.66;;;7.50;100.00
19748;BME280;10032;51.386;12.516;2023-05-25T02:41:20;100980.59;;;7.48;100.00
19748;BME280;10032;51.386;12.516;2023-05-25T02:43:46;100980.00;;;7.46;100.00
19748;BME280;10032;51.386;12.516;2023-05-25T02:46:11;100981.25;;;7.43;100.00
19748;BME280;10032;51.386;12.516;2023-05-25T02:48:37;100976.25;;;7.40;100.00
19748;BME280;10032;51.386;12.516;2023-05-25T02:51:03;100986.00;;;7.41;100.00
19748;BME280;10032;51.386;12.516;2023-05-25T02:53:28;100984.13;;;7.35;100.00
19748;BME280;10032;51.386;12.516;2023-05-25T02:55:54;100979.19;;;7.32;100.00
19748;BME280;10032;51.386;12.516;2023-05-25T02:58:20;100980.41;;;7.30;100.00
19748;BME280;10032;51.386;12.516;2023-05-25T03:00:46;100977.94;;;7.28;100.00
19748;BME280;10032;51.386;12.516;2023-05-25T03:03:12;100983.72;;;7.25;100.00
19748;BME280;10032;51.386;12.516;2023-05-25T03:05:40;100976.06;;;7.22;100.00
19748;BME280;10032;51.386;12.516;2023-05-25T03:08:06;100979.81;;;7.21;100.00
19748;BME280;10032;51.386;12.516;2023-05-25T03:10:31;100988.28;;;7.18;100.00
19748;BME280;10032;51.386;12.516;2023-05-25T03:12:56;100996.16;;;7.20;100.00
19748;BME280;10032;51.386;12.516;2023-05-25T03:15:22;100983.53;;;7.20;100.00
19748;BME280;10032;51.386;12.516;2023-05-25T03:17:48;100992.44;;;7.21;100.00
19748;BME280;10032;51.386;12.516;2023-05-25T03:20:14;100999.91;;;7.19;100.00
19748;BME280;10032;51.386;12.516;2023-05-25T03:22:41;100993.69;;;7.18;100.00
19748;BME280;10032;51.386;12.516;2023-05-25T03:25:08;100993.69;;;7.18;100.00
19748;BME280;10032;51.386;12.516;2023-05-25T03:27:36;100998.66;;;7.21;100.00
19748;BME280;10032;51.386;12.516;2023-05-25T03:30:02;101011.28;;;7.21;100.00
19748;BME280;10032;51.386;12.516;2023-05-25T03:32:28;101004.06;;;7.21;100.00
19748;BME280;10032;51.386;12.516;2023-05-25T03:34:56;101000.31;;;7.22;100.00
19748;BME280;10032;51.386;12.516;2023-05-25T03:37:22;101000.13;;;7.24;100.00
19748;BME280;10032;51.386;12.516;2023-05-25T03:39:47;100997.84;;;7.27;100.00
19748;BME280;10032;51.386;12.516;2023-05-25T03:42:12;101006.31;;;7.24;100.00
19748;BME280;10032;51.386;12.516;2023-05-25T03:44:38;101013.81;;;7.29;100.00
19748;BME280;10032;51.386;12.516;2023-05-25T03:47:03;101009.03;;;7.31;100.00
19748;BME280;10032;51.386;12.516;2023-05-25T03:49:29;101014.81;;;7.34;100.00
19748;BME280;10032;51.386;12.516;2023-05-25T03:51:56;101018.97;;;7.37;100.00
19748;BME280;10032;51.386;12.516;2023-05-25T03:54:24;101019.63;;;7.39;100.00
19748;BME280;10032;51.386;12.516;2023-05-25T03:56:50;101026.66;;;7.40;100.00
19748;BME280;10032;51.386;12.516;2023-05-25T03:59:15;101026.03;;;7.57;100.00
19748;BME280;10032;51.386;12.516;2023-05-25T04:01:41;101023.50;;;7.69;100.00
19748;BME280;10032;51.386;12.516;2023-05-25T04:04:06;101027.88;;;7.63;100.00
19748;BME280;10032;51.386;12.516;2023-05-25T04:06:31;101030.16;;;7.60;100.00
19748;BME280;10032;51.386;12.516;2023-05-25T04:08:58;101029.34;;;7.59;100.00
19748;BME280;10032;51.386;12.516;2023-05-25T04:11:23;101035.53;;;7.60;100.00
19748;BME280;10032;51.386;12.516;2023-05-25T04:13:50;101041.13;;;7.65;100.00
19748;BME280;10032;51.386;12.516;2023-05-25T04:16:15;101045.50;;;7.72;100.00
19748;BME280;10032;51.386;12.516;2023-05-25T04:18:41;101049.63;;;7.81;100.00
19748;BME280;10032;51.386;12.516;2023-05-25T04:21:06;101053.34;;;7.93;100.00
19748;BME280;10032;51.386;12.516;2023-05-25T04:23:31;101054.19;;;8.00;100.00
19748;BME280;10032;51.386;12.516;2023-05-25T04:25:58;101056.63;;;8.08;100.00
19748;BME280;10032;51.386;12.516;2023-05-25T04:28:24;101059.13;;;8.16;100.00
19748;BME280;10032;51.386;12.516;2023-05-25T04:30:49;101067.41;;;8.28;100.00
19748;BME280;10032;51.386;12.516;2023-05-25T04:33:15;101070.47;;;8.44;100.00
19748;BME280;10032;51.386;12.516;2023-05-25T04:35:42;101061.50;;;8.63;100.00
19748;BME280;10032;51.386;12.516;2023-05-25T04:38:07;101063.28;;;8.76;100.00
19748;BME280;10032;51.386;12.516;2023-05-25T04:40:33;101071.13;;;8.90;100.00
19748;BME280;10032;51.386;12.516;2023-05-25T04:43:00;101050.88;;;8.99;100.00
19748;BME280;10032;51.386;12.516;2023-05-25T04:45:25;101048.72;;;9.14;100.00
19748;BME280;10032;51.386;12.516;2023-05-25T04:47:53;101054.81;;;9.34;100.00
19748;BME280;10032;51.386;12.516;2023-05-25T04:50:23;101051.53;;;9.57;100.00
19748;BME280;10032;51.386;12.516;2023-05-25T04:52:48;101044.66;;;9.79;100.00
19748;BME280;10032;51.386;12.516;2023-05-25T04:55:13;101050.03;;;10.03;100.00
19748;BME280;10032;51.386;12.516;2023-05-25T04:57:39;101039.31;;;10.33;100.00
19748;BME280;10032;51.386;12.516;2023-05-25T05:00:05;101035.75;;;10.68;100.00
19748;BME280;10032;51.386;12.516;2023-05-25T05:02:34;101047.56;;;11.03;100.00
19748;BME280;10032;51.386;12.516;2023-05-25T05:05:00;101045.78;;;11.38;100.00
19748;BME280;10032;51.386;12.516;2023-05-25T05:07:25;101036.53;;;11.69;100.00
19748;BME280;10032;51.386;12.516;2023-05-25T05:09:51;101040.56;;;12.01;100.00
19748;BME280;10032;51.386;12.516;2023-05-25T05:12:16;101039.81;;;12.28;100.00
19748;BME280;10032;51.386;12.516;2023-05-25T05:14:45;101040.72;;;12.45;100.00
19748;BME280;10032;51.386;12.516;2023-05-25T05:17:10;101054.59;;;12.72;100.00
19748;BME280;10032;51.386;12.516;2023-05-25T05:19:36;101047.56;;;12.99;100.00
19748;BME280;10032;51.386;12.516;2023-05-25T05:22:07;101045.63;;;13.27;100.00
19748;BME280;10032;51.386;12.516;2023-05-25T05:24:34;101055.78;;;13.48;100.00
19748;BME280;10032;51.386;12.516;2023-05-25T05:26:59;101048.72;;;13.64;100.00
19748;BME280;10032;51.386;12.516;2023-05-25T05:29:25;101056.22;;;13.73;100.00
19748;BME280;10032;51.386;12.516;2023-05-25T05:31:54;101055.63;;;14.04;100.00
19748;BME280;10032;51.386;12.516;2023-05-25T05:34:20;101063.53;;;14.22;100.00
19748;BME280;10032;51.386;12.516;2023-05-25T05:36:46;101067.00;;;14.34;100.00
19748;BME280;10032;51.386;12.516;2023-05-25T05:39:12;101069.63;;;14.67;100.00
19748;BME280;10032;51.386;12.516;2023-05-25T05:41:37;101072.84;;;14.86;100.00
19748;BME280;10032;51.386;12.516;2023-05-25T05:44:02;101085.09;;;14.62;100.00
19748;BME280;10032;51.386;12.516;2023-05-25T05:46:28;101081.34;;;14.46;100.00
19748;BME280;10032;51.386;12.516;2023-05-25T05:48:53;101076.66;;;14.63;100.00
19748;BME280;10032;51.386;12.516;2023-05-25T05:51:19;101072.97;;;14.96;100.00
19748;BME280;10032;51.386;12.516;2023-05-25T05:53:44;101082.78;;;15.18;100.00
19748;BME280;10032;51.386;12.516;2023-05-25T05:56:19;101085.44;;;15.35;100.00
19748;BME280;10032;51.386;12.516;2023-05-25T05:58:46;101084.41;;;15.67;100.00
19748;BME280;10032;51.386;12.516;2023-05-25T06:01:14;101091.66;;;15.52;100.00
19748;BME280;10032;51.386;12.516;2023-05-25T06:03:41;101086.09;;;14.99;100.00
19748;BME280;10032;51.386;12.516;2023-05-25T06:06:07;101093.28;;;14.62;100.00
19748;BME280;10032;51.386;12.516;2023-05-25T06:08:32;101099.81;;;14.39;100.00
19748;BME280;10032;51.386;12.516;2023-05-25T06:10:58;101093.13;;;14.30;100.00
19748;BME280;10032;51.386;12.516;2023-05-25T06:13:26;101100.38;;;14.41;100.00
19748;BME280;10032;51.386;12.516;2023-05-25T06:15:51;101094.97;;;14.46;100.00
19748;BME280;10032;51.386;12.516;2023-05-25T06:18:17;101095.25;;;14.66;100.00
19748;BME280;10032;51.386;12.516;2023-05-25T06:20:44;101082.06;;;14.80;100.00
19748;BME280;10032;51.386;12.516;2023-05-25T06:23:09;101100.13;;;14.64;100.00
19748;BME280;10032;51.386;12.516;2023-05-25T06:25:36;101099.63;;;14.67;100.00
19748;BME280;10032;51.386;12.516;2023-05-25T06:28:02;101091.03;;;14.75;100.00
19748;BME280;10032;51.386;12.516;2023-05-25T06:30:27;101089.69;;;14.78;100.00
19748;BME280;10032;51.386;12.516;2023-05-25T06:32:53;101095.59;;;15.18;100.00
19748;BME280;10032;51.386;12.516;2023-05-25T06:35:18;101084.31;;;15.57;100.00
19748;BME280;10032;51.386;12.516;2023-05-25T06:37:46;101083.78;;;15.60;100.00
19748;BME280;10032;51.386;12.516;2023-05-25T06:40:11;101082.38;;;15.89;100.00
19748;BME280;10032;51.386;12.516;2023-05-25T06:42:37;101091.25;;;16.06;100.00
19748;BME280;10032;51.386;12.516;2023-05-25T06:45:06;101088.84;;;16.46;100.00
19748;BME280;10032;51.386;12.516;2023-05-25T06:47:32;101086.69;;;16.58;100.00
19748;BME280;10032;51.386;12.516;2023-05-25T06:49:58;101086.69;;;16.53;100.00
19748;BME280;10032;51.386;12.516;2023-05-25T06:52:24;101078.34;;;16.80;100.00
19748;BME280;10032;51.386;12.516;2023-05-25T06:54:52;101085.28;;;17.12;100.00
19748;BME280;10032;51.386;12.516;2023-05-25T06:57:18;101086.69;;;17.35;100.00
19748;BME280;10032;51.386;12.516;2023-05-25T06:59:44;101085.41;;;17.47;100.00
19748;BME280;10032;51.386;12.516;2023-05-25T07:02:09;101088.69;;;17.44;100.00
19748;BME280;10032;51.386;12.516;2023-05-25T07:04:35;101093.09;;;17.55;100.00
19748;BME280;10032;51.386;12.516;2023-05-25T07:07:00;101089.28;;;17.76;100.00
19748;BME280;10032;51.386;12.516;2023-05-25T07:09:26;101091.16;;;17.66;100.00
19748;BME280;10032;51.386;12.516;2023-05-25T07:11:51;101097.75;;;17.70;100.00
19748;BME280;10032;51.386;12.516;2023-05-25T07:14:17;101095.28;;;17.58;100.00
19748;BME280;10032;51.386;12.516;2023-05-25T07:16:42;101092.56;;;17.88;100.00
19748;BME280;10032;51.386;12.516;2023-05-25T07:19:09;101090.91;;;17.92;100.00
19748;BME280;10032;51.386;12.516;2023-05-25T07:21:35;101087.06;;;17.98;100.00
19748;BME280;10032;51.386;12.516;2023-05-25T07:24:04;101091.44;;;18.24;100.00
19748;BME280;10032;51.386;12.516;2023-05-25T07:26:30;101088.66;;;18.44;100.00
19748;BME280;10032;51.386;12.516;2023-05-25T07:28:56;101086.47;;;18.46;100.00
19748;BME280;10032;51.386;12.516;2023-05-25T07:31:22;101091.34;;;18.64;100.00
19748;BME280;10032;51.386;12.516;2023-05-25T07:33:47;101087.69;;;18.89;100.00
19748;BME280;10032;51.386;12.516;2023-05-25T07:36:13;101094.47;;;19.06;100.00
19748;BME280;10032;51.386;12.516;2023-05-25T07:38:38;101085.06;;;19.27;100.00
19748;BME280;10032;51.386;12.516;2023-05-25T07:41:04;101080.13;;;19.29;100.00
19748;BME280;10032;51.386;12.516;2023-05-25T07:43:29;101078.31;;;19.48;100.00
19748;BME280;10032;51.386;12.516;2023-05-25T07:45:55;101081.50;;;19.65;100.00
19748;BME280;10032;51.386;12.516;2023-05-25T07:48:21;101075.06;;;19.80;100.00
19748;BME280;10032;51.386;12.516;2023-05-25T07:50:46;101087.28;;;19.69;100.00
19748;BME280;10032;51.386;12.516;2023-05-25T07:53:12;101077.56;;;19.76;100.00
19748;BME280;10032;51.386;12.516;2023-05-25T07:55:38;101082.09;;;19.62;100.00
19748;BME280;10032;51.386;12.516;2023-05-25T07:58:04;101085.59;;;19.68;100.00
19748;BME280;10032;51.386;12.516;2023-05-25T08:00:31;101088.31;;;20.06;100.00
19748;BME280;10032;51.386;12.516;2023-05-25T08:02:57;101086.16;;;20.32;100.00
19748;BME280;10032;51.386;12.516;2023-05-25T08:05:22;101084.44;;;20.12;100.00
19748;BME280;10032;51.386;12.516;2023-05-25T08:07:48;101084.06;;;20.24;100.00
19748;BME280;10032;51.386;12.516;2023-05-25T08:10:13;101089.47;;;20.00;99.48
19748;BME280;10032;51.386;12.516;2023-05-25T08:12:39;101095.16;;;19.75;100.00
19748;BME280;10032;51.386;12.516;2023-05-25T08:15:05;101096.88;;;19.71;100.00
19748;BME280;10032;51.386;12.516;2023-05-25T08:17:30;101087.53;;;19.67;100.00
19748;BME280;10032;51.386;12.516;2023-05-25T08:19:56;101099.22;;;19.49;98.34
19748;BME280;10032;51.386;12.516;2023-05-25T08:22:21;101094.44;;;19.16;96.86
19748;BME280;10032;51.386;12.516;2023-05-25T08:24:48;101100.63;;;18.88;97.48
19748;BME280;10032;51.386;12.516;2023-05-25T08:27:14;101095.09;;;18.93;98.45
19748;BME280;10032;51.386;12.516;2023-05-25T08:29:40;101096.59;;;19.29;98.79
19748;BME280;10032;51.386;12.516;2023-05-25T08:32:05;101100.06;;;19.83;98.23
19748;BME280;10032;51.386;12.516;2023-05-25T08:34:31;101095.81;;;20.29;97.11
19748;BME280;10032;51.386;12.516;2023-05-25T08:36:56;101096.16;;;20.51;93.70
19748;BME280;10032;51.386;12.516;2023-05-25T08:39:22;101086.63;;;20.67;94.86
19748;BME280;10032;51.386;12.516;2023-05-25T08:41:49;101091.59;;;20.89;92.89
19748;BME280;10032;51.386;12.516;2023-05-25T08:44:14;101103.34;;;20.99;91.23
19748;BME280;10032;51.386;12.516;2023-05-25T08:46:40;101098.50;;;21.10;88.25
19748;BME280;10032;51.386;12.516;2023-05-25T08:49:10;101104.16;;;21.18;88.78
19748;BME280;10032;51.386;12.516;2023-05-25T08:51:38;101107.47;;;21.39;90.00
19748;BME280;10032;51.386;12.516;2023-05-25T08:54:07;101114.22;;;21.88;89.46
19748;BME280;10032;51.386;12.516;2023-05-25T08:56:59;101112.94;;;21.62;86.24
19748;BME280;10032;51.386;12.516;2023-05-25T08:59:30;101116.44;;;21.86;84.95
19748;BME280;10032;51.386;12.516;2023-05-25T09:02:07;101110.06;;;22.04;84.82
19748;BME280;10032;51.386;12.516;2023-05-25T09:04:36;101110.84;;;22.37;82.67
19748;BME280;10032;51.386;12.516;2023-05-25T09:07:03;101112.81;;;22.36;81.51
19748;BME280;10032;51.386;12.516;2023-05-25T09:09:28;101125.81;;;21.67;78.76
19748;BME280;10032;51.386;12.516;2023-05-25T09:11:56;101109.25;;;21.30;81.10
19748;BME280;10032;51.386;12.516;2023-05-25T09:14:22;101125.03;;;21.24;79.29
19748;BME280;10032;51.386;12.516;2023-05-25T09:16:49;101127.28;;;21.22;79.69
19748;BME280;10032;51.386;12.516;2023-05-25T09:19:14;101118.13;;;21.82;80.24
19748;BME280;10032;51.386;12.516;2023-05-25T09:21:40;101116.59;;;22.40;78.39
19748;BME280;10032;51.386;12.516;2023-05-25T09:24:08;101120.03;;;22.64;77.38
19748;BME280;10032;51.386;12.516;2023-05-25T09:26:36;101130.59;;;22.62;74.31
19748;BME280;10032;51.386;12.516;2023-05-25T09:29:01;101122.00;;;22.00;73.76
19748;BME280;10032;51.386;12.516;2023-05-25T09:31:27;101124.75;;;21.44;70.46
19748;BME280;10032;51.386;12.516;2023-05-25T09:33:52;101122.34;;;21.01;70.21
19748;BME280;10032;51.386;12.516;2023-05-25T09:36:24;101127.53;;;21.02;71.27
19748;BME280;10032;51.386;12.516;2023-05-25T09:38:53;101122.00;;;21.44;72.94
19748;BME280;10032;51.386;12.516;2023-05-25T09:41:20;101121.88;;;21.91;73.42
19748;BME280;10032;51.386;12.516;2023-05-25T09:43:46;101122.50;;;22.20;71.26
19748;BME280;10032;51.386;12.516;2023-05-25T09:46:12;101120.28;;;22.36;69.23
19748;BME280;10032;51.386;12.516;2023-05-25T09:48:38;101132.25;;;21.99;67.51
19748;BME280;10032;51.386;12.516;2023-05-25T09:51:05;101132.25;;;21.62;65.72
19748;BME280;10032;51.386;12.516;2023-05-25T09:53:31;101131.13;;;21.63;68.52
19748;BME280;10032;51.386;12.516;2023-05-25T09:55:56;101126.19;;;22.29;67.19
19748;BME280;10032;51.386;12.516;2023-05-25T09:58:22;101127.63;;;22.40;65.68
19748;BME280;10032;51.386;12.516;2023-05-25T10:00:53;101130.25;;;22.50;63.73
19748;BME280;10032;51.386;12.516;2023-05-25T10:03:19;101120.25;;;22.22;64.26
19748;BME280;10032;51.386;12.516;2023-05-25T10:05:47;101128.50;;;21.90;62.66
19748;BME280;10032;51.386;12.516;2023-05-25T10:08:12;101127.41;;;21.73;62.33
19748;BME280;10032;51.386;12.516;2023-05-25T10:10:39;101135.97;;;21.71;62.09
19748;BME280;10032;51.386;12.516;2023-05-25T10:13:07;101131.69;;;21.97;62.42
19748;BME280;10032;51.386;12.516;2023-05-25T10:15:32;101124.69;;;22.05;62.58
19748;BME280;10032;51.386;12.516;2023-05-25T10:18:00;101125.69;;;22.27;61.09
19748;BME280;10032;51.386;12.516;2023-05-25T10:20:26;101127.09;;;22.70;62.39
19748;BME280;10032;51.386;12.516;2023-05-25T10:23:00;101125.75;;;23.35;61.05
19748;BME280;10032;51.386;12.516;2023-05-25T10:25:37;101125.28;;;22.79;57.96
19748;BME280;10032;51.386;12.516;2023-05-25T10:28:13;101131.59;;;22.80;59.13
19748;BME280;10032;51.386;12.516;2023-05-25T10:30:40;101130.25;;;22.50;59.29
19748;BME280;10032;51.386;12.516;2023-05-25T10:33:07;101122.44;;;22.39;56.55
19748;BME280;10032;51.386;12.516;2023-05-25T10:35:33;101124.53;;;21.96;56.81
19748;BME280;10032;51.386;12.516;2023-05-25T10:38:00;101133.94;;;21.95;56.87
19748;BME280;10032;51.386;12.516;2023-05-25T10:40:26;101134.38;;;22.02;57.56
19748;BME280;10032;51.386;12.516;2023-05-25T10:42:51;101128.63;;;22.63;56.63
19748;BME280;10032;51.386;12.516;2023-05-25T10:45:17;101128.25;;;23.10;57.53
19748;BME280;10032;51.386;12.516;2023-05-25T10:47:43;101121.78;;;23.41;55.93
19748;BME280;10032;51.386;12.516;2023-05-25T10:50:39;101108.09;;;23.58;54.87
19748;BME280;10032;51.386;12.516;2023-05-25T10:53:07;101109.91;;;23.63;53.30
19748;BME280;10032;51.386;12.516;2023-05-25T10:55:59;101118.22;;;23.98;54.37
19748;BME280;10032;51.386;12.516;2023-05-25T10:58:27;101108.56;;;24.40;53.18
19748;BME280;10032;51.386;12.516;2023-05-25T11:01:06;101111.25;;;24.53;52.49
19748;BME280;10032;51.386;12.516;2023-05-25T11:03:54;101113.41;;;23.68;51.81
19748;BME280;10032;51.386;12.516;2023-05-25T11:06:22;101120.78;;;23.10;51.73
19748;BME280;10032;51.386;12.516;2023-05-25T11:11:17;101108.28;;;22.99;52.76
19748;BME280;10032;51.386;12.516;2023-05-25T11:13:44;101111.84;;;23.00;52.61
19748;BME280;10032;51.386;12.516;2023-05-25T11:18:56;101111.38;;;22.39;53.02
19748;BME280;10032;51.386;12.516;2023-05-25T11:23:57;101113.75;;;22.45;53.69
19748;BME280;10032;51.386;12.516;2023-05-25T11:26:27;101105.28;;;23.36;53.99
19748;BME280;10032;51.386;12.516;2023-05-25T11:28:54;101105.22;;;23.85;52.58
19748;BME280;10032;51.386;12.516;2023-05-25T11:31:40;101105.94;;;23.91;53.08
19748;BME280;10032;51.386;12.516;2023-05-25T11:34:06;101103.13;;;24.26;52.77
19748;BME280;10032;51.386;12.516;2023-05-25T11:36:36;101099.19;;;24.27;51.12
19748;BME280;10032;51.386;12.516;2023-05-25T11:39:07;101100.66;;;23.81;49.34
19748;BME280;10032;51.386;12.516;2023-05-25T11:41:33;101093.22;;;23.32;49.02
19748;BME280;10032;51.386;12.516;2023-05-25T11:44:04;101100.75;;;23.89;50.61
19748;BME280;10032;51.386;12.516;2023-05-25T11:46:31;101097.09;;;24.33;50.39
19748;BME280;10032;51.386;12.516;2023-05-25T11:48:58;101094.94;;;24.21;48.58
19748;BME280;10032;51.386;12.516;2023-05-25T11:51:27;101099.59;;;23.90;48.64
19748;BME280;10032;51.386;12.516;2023-05-25T11:53:53;101095.16;;;23.32;48.86
19748;BME280;10032;51.386;12.516;2023-05-25T11:56:22;101091.16;;;23.73;50.12
19748;BME280;10032;51.386;12.516;2023-05-25T11:58:49;101102.28;;;24.26;48.65
19748;BME280;10032;51.386;12.516;2023-05-25T12:01:19;101086.97;;;24.28;49.56
19748;BME280;10032;51.386;12.516;2023-05-25T12:03:49;101086.50;;;24.26;48.74
19748;BME280;10032;51.386;12.516;2023-05-25T12:06:31;101095.00;;;24.08;47.87
19748;BME280;10032;51.386;12.516;2023-05-25T12:08:59;101088.78;;;24.02;48.11
19748;BME280;10032;51.386;12.516;2023-05-25T12:11:35;101085.06;;;24.37;48.29
19748;BME280;10032;51.386;12.516;2023-05-25T12:14:06;101078.41;;;24.38;47.12
19748;BME280;10032;51.386;12.516;2023-05-25T12:16:35;101075.94;;;24.06;46.57
19748;BME280;10032;51.386;12.516;2023-05-25T12:19:03;101081.03;;;24.43;47.10
19748;BME280;10032;51.386;12.516;2023-05-25T12:21:32;101072.56;;;24.79;46.51
19748;BME280;10032;51.386;12.516;2023-05-25T12:23:58;101074.00;;;24.68;45.93
19748;BME280;10032;51.386;12.516;2023-05-25T12:26:24;101071.97;;;24.99;46.76
19748;BME280;10032;51.386;12.516;2023-05-25T12:29:00;101064.72;;;25.28;45.56
19748;BME280;10032;51.386;12.516;2023-05-25T12:31:31;101061.06;;;25.19;45.22
19748;BME280;10032;51.386;12.516;2023-05-25T12:34:17;101065.72;;;25.32;45.43
19748;BME280;10032;51.386;12.516;2023-05-25T12:36:49;101062.63;;;25.51;44.24
19748;BME280;10032;51.386;12.516;2023-05-25T12:41:53;101069.56;;;25.23;43.67
19748;BME280;10032;51.386;12.516;2023-05-25T12:44:25;101060.00;;;24.81;42.65
19748;BME280;10032;51.386;12.516;2023-05-25T12:46:54;101060.00;;;24.81;42.34
19748;BME280;10032;51.386;12.516;2023-05-25T12:49:33;101043.06;;;24.91;44.44